Hollywood Heights, Illinois
Current Conditions -  °F | °C
As of 10:53 PM on Friday 19 Dec 2014 (Local Time) from KCPS Reporting Station
Overcast Overcast  
Wind Chill: 36°   Ceiling: 5500
Heat Index: 36°   Visibility: 9mi
Dew Point: 28°   Wind: 0mph
Humidity: 73%   Direction: NA
Pressure: 30.28"   Gusts: NA
Location:  38.635°N, 90.0037°W
Report Text: KCPS 200453Z AUTO 00000KT 9SM FEW030 OVC055 02/M02 A3028 RMK AO2 SLP255 T00221022 TSNO
Loading
Personal Weather Stations






























Interactive Weather Map New forecast layout! Learn more

10-Day Weather Forecast

Advertisements
Track Severe Weather on mobile